createdAt,value
2023-01-11T00:00:26.504Z,97311.50
2023-01-11T00:03:32.428Z,97259.44
2023-01-11T00:06:37.039Z,97302.78
2023-01-11T00:09:41.612Z,97309.81
2023-01-11T00:12:46.540Z,97297.13
2023-01-11T00:15:51.197Z,97303.06
2023-01-11T00:18:56.125Z,97297.94
2023-01-11T00:22:00.648Z,97291.91
2023-01-11T00:25:07.005Z,97302.53
2023-01-11T00:28:11.472Z,97295.13
2023-01-11T00:31:16.729Z,97290.94
2023-01-11T00:34:21.416Z,97297.69
2023-01-11T00:37:25.875Z,97295.06
2023-01-11T00:40:30.527Z,97290.09
2023-01-11T00:43:53.719Z,97290.34
2023-01-11T00:47:16.536Z,97294.38
2023-01-11T00:50:21.998Z,97292.47
2023-01-11T00:53:26.464Z,97285.03
2023-01-11T00:56:31.011Z,97288.13
2023-01-11T00:59:36.821Z,97284.25
2023-01-11T01:02:43.057Z,97266.66
2023-01-11T01:05:47.658Z,97278.91
2023-01-11T01:08:52.321Z,97276.25
2023-01-11T01:11:56.900Z,97274.81
2023-01-11T01:15:01.766Z,97274.13
2023-01-11T01:18:06.241Z,97274.81
2023-01-11T01:21:11.998Z,97265.56
2023-01-11T01:24:16.574Z,97264.06
2023-01-11T01:27:21.062Z,97268.94
2023-01-11T01:30:25.630Z,97270.09
2023-01-11T01:33:30.207Z,97268.47
2023-01-11T01:36:35.536Z,97273.69
2023-01-11T01:39:40.128Z,97268.41
2023-01-11T01:42:44.649Z,97272.00
2023-01-11T01:45:52.674Z,97254.75
2023-01-11T01:49:00.133Z,97261.34
2023-01-11T01:52:04.753Z,97257.38
2023-01-11T01:55:13.664Z,97255.47
2023-01-11T01:58:22.086Z,97256.97
2023-01-11T02:01:45.557Z,97249.16
2023-01-11T02:04:51.048Z,97247.97
2023-01-11T02:07:58.749Z,97249.56
2023-01-11T02:11:04.500Z,97258.13
2023-01-11T02:14:14.429Z,97252.25
2023-01-11T02:17:18.946Z,97222.63
2023-01-11T02:20:38.257Z,97237.94
2023-01-11T02:24:10.176Z,97231.06
2023-01-11T02:27:43.009Z,97222.78
2023-01-11T02:31:01.204Z,97220.13
2023-01-11T02:34:21.343Z,97215.13
2023-01-11T02:37:46.942Z,97217.63
2023-01-11T02:41:00.380Z,97213.72
2023-01-11T02:44:31.041Z,97214.97
2023-01-11T02:48:00.772Z,97215.03
2023-01-11T02:51:12.414Z,97211.97
2023-01-11T02:54:20.505Z,97206.56
2023-01-11T02:57:27.616Z,97209.31
2023-01-11T03:00:32.718Z,97202.53
2023-01-11T03:03:37.299Z,97206.09
2023-01-11T03:06:41.928Z,97204.88
2023-01-11T03:10:04.883Z,97201.66
2023-01-11T03:13:25.015Z,97205.06
2023-01-11T03:16:48.409Z,97205.00
2023-01-11T03:20:06.740Z,97222.88
2023-01-11T03:23:36.919Z,97220.31
2023-01-11T03:27:08.840Z,97218.22
2023-01-11T03:30:26.523Z,97215.53
2023-01-11T03:33:45.250Z,97206.09
2023-01-11T03:36:51.025Z,97218.63
2023-01-11T03:40:19.237Z,97203.56
2023-01-11T03:43:25.744Z,97198.44
2023-01-11T03:46:39.932Z,97201.91
2023-01-11T03:49:58.800Z,97195.84
2023-01-11T03:53:07.299Z,97194.28
2023-01-11T03:56:15.820Z,97195.47
2023-01-11T03:59:22.015Z,97191.81
2023-01-11T04:02:33.280Z,97188.56
2023-01-11T04:05:39.563Z,97195.75
2023-01-11T04:08:44.107Z,97191.59
2023-01-11T04:11:48.763Z,97194.06
2023-01-11T04:14:53.428Z,97191.84
2023-01-11T04:18:04.787Z,97194.44
2023-01-11T04:21:09.309Z,97195.25
2023-01-11T04:24:15.044Z,97188.59
2023-01-11T04:27:19.521Z,97191.84
2023-01-11T04:30:24.107Z,97184.88
2023-01-11T04:33:28.567Z,97186.38
2023-01-11T04:36:33.538Z,97189.03
2023-01-11T04:39:38.421Z,97183.81
2023-01-11T04:42:42.993Z,97175.22
2023-01-11T04:45:49.798Z,97143.50
2023-01-11T04:48:56.224Z,97182.13
2023-01-11T04:52:00.727Z,97172.16
2023-01-11T04:55:05.520Z,97176.50
2023-01-11T04:58:10.049Z,97176.81
2023-01-11T05:01:17.522Z,97174.72
2023-01-11T05:04:25.238Z,97129.28
2023-01-11T05:07:30.205Z,97170.50
2023-01-11T05:10:34.726Z,97166.94
2023-01-11T05:13:41.873Z,97163.53
2023-01-11T05:16:46.420Z,97165.25
2023-01-11T05:19:51.111Z,97155.91
2023-01-11T05:22:55.672Z,97146.72
2023-01-11T05:26:00.182Z,97150.94
2023-01-11T05:29:07.389Z,97142.63
2023-01-11T05:32:12.816Z,97150.19
2023-01-11T05:35:17.312Z,97147.72
2023-01-11T05:38:23.049Z,97142.63
2023-01-11T05:41:28.132Z,97139.25
2023-01-11T05:44:51.383Z,97135.81
2023-01-11T05:47:55.951Z,97140.09
2023-01-11T05:51:01.590Z,97140.22
2023-01-11T05:54:09.173Z,97146.19
2023-01-11T05:57:13.651Z,97151.09
2023-01-11T06:00:18.586Z,97147.75
2023-01-11T06:03:25.270Z,97148.47
2023-01-11T06:06:32.519Z,97139.97
2023-01-11T06:09:37.071Z,97147.69
2023-01-11T06:12:41.532Z,97150.22
2023-01-11T06:15:46.252Z,97152.81
2023-01-11T06:18:52.396Z,97149.47
2023-01-11T06:21:56.913Z,97154.50
2023-01-11T06:25:01.392Z,97153.13
2023-01-11T06:28:06.024Z,97152.47
2023-01-11T06:31:10.922Z,97145.59
2023-01-11T06:34:15.549Z,97131.97
2023-01-11T06:37:20.077Z,97128.44
2023-01-11T06:40:24.619Z,97117.47
2023-01-11T06:43:30.472Z,97132.72
2023-01-11T06:46:35.051Z,97108.84
2023-01-11T06:49:39.661Z,97121.75
2023-01-11T06:52:51.633Z,97120.81
2023-01-11T06:55:58.188Z,97120.88
2023-01-11T06:59:02.720Z,97119.22
2023-01-11T07:02:10.065Z,97096.19
2023-01-11T07:05:17.556Z,97115.78
2023-01-11T07:08:26.805Z,97125.03
2023-01-11T07:11:32.194Z,97119.09
2023-01-11T07:14:38.163Z,97076.06
2023-01-11T07:17:42.674Z,97117.38
2023-01-11T07:20:47.471Z,97122.34
2023-01-11T07:23:52.033Z,97118.97
2023-01-11T07:26:59.489Z,97111.28
2023-01-11T07:30:04.196Z,97118.13
2023-01-11T07:33:10.525Z,97113.00
2023-01-11T07:36:15.127Z,97113.97
2023-01-11T07:39:19.635Z,97112.31
2023-01-11T07:42:42.909Z,97116.53
2023-01-11T07:45:49.524Z,97072.13
2023-01-11T07:48:54.278Z,97102.16
2023-01-11T07:51:58.827Z,97089.19
2023-01-11T07:55:03.461Z,97099.66
2023-01-11T07:58:13.038Z,97102.00
2023-01-11T08:01:17.540Z,97099.50
2023-01-11T08:04:23.378Z,97092.91
2023-01-11T08:07:28.073Z,97092.03
2023-01-11T08:10:33.121Z,97103.13
2023-01-11T08:13:56.769Z,97087.75
2023-01-11T08:17:01.577Z,97080.97
2023-01-11T08:20:06.458Z,97088.63
2023-01-11T08:23:11.030Z,97088.75
2023-01-11T08:26:17.795Z,97095.56
2023-01-11T08:29:23.138Z,97093.00
2023-01-11T08:32:28.705Z,97090.38
2023-01-11T08:35:38.310Z,97092.38
2023-01-11T08:38:43.654Z,97069.25
2023-01-11T08:41:48.161Z,97085.56
2023-01-11T08:44:55.362Z,97092.34
2023-01-11T08:48:00.199Z,97091.56
2023-01-11T08:51:04.829Z,97083.00
2023-01-11T08:54:14.121Z,97092.44
2023-01-11T08:57:18.695Z,97080.44
2023-01-11T09:00:25.310Z,97054.03
2023-01-11T09:03:30.656Z,97074.56
2023-01-11T09:06:35.137Z,97072.81
2023-01-11T09:09:39.675Z,97071.16
2023-01-11T09:12:46.173Z,97036.97
2023-01-11T09:15:54.566Z,97061.72
2023-01-11T09:18:59.084Z,97056.63
2023-01-11T09:22:03.643Z,97052.34
2023-01-11T09:25:08.836Z,97039.50
2023-01-11T09:28:13.379Z,97060.88
2023-01-11T09:31:19.246Z,97008.81
2023-01-11T09:34:25.336Z,97053.22
2023-01-11T09:37:30.325Z,97046.28
2023-01-11T09:40:55.144Z,97054.06
2023-01-11T09:44:16.475Z,97046.28
2023-01-11T09:47:25.294Z,97045.41
2023-01-11T09:50:33.221Z,97048.78
2023-01-11T09:53:38.481Z,97038.56
2023-01-11T09:57:02.493Z,97028.19
2023-01-11T10:00:22.486Z,97031.59
2023-01-11T10:04:00.005Z,97026.03
2023-01-11T10:07:07.171Z,97027.84
2023-01-11T10:18:34.081Z,97022.72
2023-01-11T10:22:27.855Z,97016.09
2023-01-11T10:25:44.516Z,97010.88
2023-01-11T10:29:16.754Z,97003.75
2023-01-11T10:32:42.596Z,96990.34
2023-01-11T10:36:18.677Z,96989.19
2023-01-11T10:40:19.467Z,96979.84
2023-01-11T10:43:26.810Z,96966.16
2023-01-11T10:46:33.545Z,96950.06
2023-01-11T10:50:19.404Z,96954.94
2023-01-11T10:53:38.973Z,96916.50
2023-01-11T10:57:17.987Z,96937.09
2023-01-11T11:00:36.381Z,96945.34
2023-01-11T11:03:43.572Z,96943.81
2023-01-11T11:07:12.819Z,96948.22
2023-01-11T11:10:23.808Z,96934.25
2023-01-11T11:13:47.633Z,96932.41
2023-01-11T11:17:12.107Z,96928.09
2023-01-11T11:20:32.645Z,96920.34
2023-01-11T11:23:38.833Z,96913.31
2023-01-11T11:26:48.386Z,96900.22
2023-01-11T11:29:55.739Z,96903.69
2023-01-11T11:33:08.081Z,96905.34
2023-01-11T11:36:14.193Z,96905.53
2023-01-11T11:39:31.485Z,96906.19
2023-01-11T11:42:36.000Z,96897.38
2023-01-11T11:45:54.171Z,96889.97
2023-01-11T11:49:16.614Z,96896.53
2023-01-11T11:52:21.192Z,96892.25
2023-01-11T11:55:30.744Z,96886.00
2023-01-11T11:58:41.206Z,96876.88
2023-01-11T12:01:48.354Z,96873.78
2023-01-11T12:04:53.916Z,96852.72
2023-01-11T12:07:59.497Z,96845.56
2023-01-11T12:11:07.906Z,96839.00
2023-01-11T12:14:24.039Z,96828.84
2023-01-11T12:17:28.584Z,96830.34
2023-01-11T12:20:39.520Z,96827.75
2023-01-11T12:23:44.434Z,96817.50
2023-01-11T12:27:05.525Z,96832.00
2023-01-11T12:30:21.688Z,96832.91
2023-01-11T12:33:48.578Z,96831.94
2023-01-11T12:37:25.309Z,96810.84
2023-01-11T12:40:37.400Z,96801.47
2023-01-11T12:44:02.719Z,96795.59
2023-01-11T12:47:21.493Z,96791.00
2023-01-11T12:51:05.976Z,96789.47
2023-01-11T12:54:45.510Z,96783.13
2023-01-11T12:58:09.006Z,96777.47
2023-01-11T13:01:27.266Z,96772.81
2023-01-11T13:04:33.030Z,96771.16
2023-01-11T13:08:17.058Z,96772.13
2023-01-11T13:12:00.560Z,96770.00
2023-01-11T13:15:24.203Z,96762.84
2023-01-11T13:18:33.379Z,96758.19
2023-01-11T13:21:52.820Z,96748.81
2023-01-11T13:24:59.015Z,96755.97
2023-01-11T13:28:27.789Z,96747.19
2023-01-11T13:31:35.360Z,96739.75
2023-01-11T13:34:48.337Z,96749.16
2023-01-11T13:37:58.719Z,96742.81
2023-01-11T13:41:30.028Z,96753.16
2023-01-11T13:44:42.370Z,96753.22
2023-01-11T13:47:55.764Z,96745.56
2023-01-11T13:51:09.248Z,96759.44
2023-01-11T13:54:22.360Z,96763.09
2023-01-11T13:57:56.649Z,96758.56
2023-01-11T14:01:11.142Z,96748.09
2023-01-11T14:04:16.986Z,96755.16
2023-01-11T14:07:27.828Z,96761.00
2023-01-11T14:11:10.635Z,96774.69
2023-01-11T14:14:52.534Z,96763.09
2023-01-11T14:18:33.337Z,96765.19
2023-01-11T14:21:50.653Z,96771.31
2023-01-11T14:25:05.766Z,96755.56
2023-01-11T14:28:25.197Z,96756.81
2023-01-11T14:31:29.651Z,96763.03
2023-01-11T14:35:17.521Z,96759.72
2023-01-11T14:38:27.886Z,96755.09
2023-01-11T14:42:03.319Z,96762.16
2023-01-11T14:45:13.751Z,96760.97
2023-01-11T14:48:36.093Z,96767.97
2023-01-11T14:51:43.642Z,96767.28
2023-01-11T14:54:52.369Z,96766.88
2023-01-11T14:57:56.839Z,96765.47
2023-01-11T15:01:05.403Z,96757.59
2023-01-11T15:04:21.910Z,96757.38
2023-01-11T15:07:29.049Z,96760.44
2023-01-11T15:10:34.433Z,96760.25
2023-01-11T15:13:49.393Z,96753.81
2023-01-11T15:17:18.339Z,96759.66
2023-01-11T15:20:24.101Z,96764.78
2023-01-11T15:23:36.531Z,96764.13
2023-01-11T15:26:49.326Z,96751.38
2023-01-11T15:29:56.392Z,96762.06
2023-01-11T15:33:21.139Z,96767.13
2023-01-11T15:36:25.739Z,96761.50
2023-01-11T15:39:54.397Z,96762.00
2023-01-11T15:43:23.801Z,96768.06
2023-01-11T15:46:54.029Z,96776.63
2023-01-11T15:50:40.682Z,96771.84
2023-01-11T15:54:00.150Z,96775.56
2023-01-11T15:57:05.999Z,96778.19
2023-01-11T16:00:41.203Z,96775.69
2023-01-11T16:04:01.208Z,96779.22
2023-01-11T16:07:33.726Z,96777.38
2023-01-11T16:11:09.252Z,96774.41
2023-01-11T16:14:32.518Z,96784.88
2023-01-11T16:17:40.857Z,96784.91
2023-01-11T16:20:58.181Z,96783.00
2023-01-11T16:24:14.926Z,96784.00
2023-01-11T16:27:26.100Z,96793.03
2023-01-11T16:30:30.839Z,96800.72
2023-01-11T16:33:35.805Z,96817.53
2023-01-11T16:36:41.621Z,96801.75
2023-01-11T16:39:49.978Z,96812.56
2023-01-11T16:43:05.441Z,96808.63
2023-01-11T16:46:30.250Z,96809.47
2023-01-11T16:49:34.898Z,96811.44
2023-01-11T16:52:46.359Z,96793.84
2023-01-11T16:56:05.361Z,96820.03
2023-01-11T16:59:16.241Z,96820.66
2023-01-11T17:02:30.088Z,96829.31
2023-01-11T17:05:34.773Z,96830.94
2023-01-11T17:08:44.787Z,96828.44
2023-01-11T17:11:52.466Z,96836.13
2023-01-11T17:14:58.001Z,96842.91
2023-01-11T17:18:04.316Z,96832.72
2023-01-11T17:21:19.327Z,96840.44
2023-01-11T17:24:26.105Z,96838.91
2023-01-11T17:27:35.613Z,96836.97
2023-01-11T17:30:44.944Z,96842.41
2023-01-11T17:33:59.961Z,96848.38
2023-01-11T17:37:10.656Z,96804.88
2023-01-11T17:40:23.543Z,96846.53
2023-01-11T17:43:48.318Z,96847.47
2023-01-11T17:46:52.865Z,96844.38
2023-01-11T17:50:01.012Z,96854.53
2023-01-11T17:53:22.623Z,96857.94
2023-01-11T17:56:34.423Z,96860.66
2023-01-11T17:59:39.004Z,96860.88
2023-01-11T18:02:43.747Z,96865.91
2023-01-11T18:05:48.392Z,96869.28
2023-01-11T18:08:54.976Z,96873.66
2023-01-11T18:12:18.752Z,96865.97
2023-01-11T18:15:30.915Z,96879.53
2023-01-11T18:18:47.267Z,96888.09
2023-01-11T18:21:53.866Z,96886.50
2023-01-11T18:24:59.030Z,96889.84
2023-01-11T18:28:19.111Z,96899.06
2023-01-11T18:31:23.682Z,96907.78
2023-01-11T18:34:28.418Z,96901.69
2023-01-11T18:37:32.989Z,96895.72
2023-01-11T18:40:37.537Z,96909.44
2023-01-11T18:43:42.006Z,96914.72
2023-01-11T18:46:46.536Z,96917.88
2023-01-11T18:49:52.253Z,96914.78
2023-01-11T18:52:57.726Z,96915.47
2023-01-11T18:56:02.275Z,96921.47
2023-01-11T18:59:06.894Z,96915.47
2023-01-11T19:05:30.719Z,96929.22
2023-01-11T19:08:35.316Z,96932.78
2023-01-11T19:11:39.916Z,96934.50
2023-01-11T19:14:44.427Z,96941.97
2023-01-11T19:17:49.030Z,96950.66
2023-01-11T19:20:54.950Z,96953.09
2023-01-11T19:23:59.483Z,96972.59
2023-01-11T19:27:04.124Z,96970.19
2023-01-11T19:30:09.197Z,96977.88
2023-01-11T19:33:13.685Z,96979.63
2023-01-11T19:36:18.182Z,96985.50
2023-01-11T19:39:22.858Z,96985.47
2023-01-11T19:42:27.425Z,96994.88
2023-01-11T19:45:31.993Z,97007.66
2023-01-11T19:48:38.259Z,96990.56
2023-01-11T19:51:42.941Z,97004.22
2023-01-11T19:54:48.753Z,97000.84
2023-01-11T19:57:53.268Z,97010.38
2023-01-11T20:00:57.885Z,97000.94
2023-01-11T20:04:02.484Z,97010.31
2023-01-11T20:07:08.836Z,97017.16
2023-01-11T20:10:13.352Z,97021.44
2023-01-11T20:13:17.922Z,97026.56
2023-01-11T20:16:23.600Z,97025.78
2023-01-11T20:19:28.372Z,97018.88
2023-01-11T20:22:33.335Z,97023.13
2023-01-11T20:25:39.134Z,97019.03
2023-01-11T20:28:51.311Z,97021.41
2023-01-11T20:31:58.195Z,97022.28
2023-01-11T20:35:08.209Z,97022.28
2023-01-11T20:38:12.807Z,97030.03
2023-01-11T20:41:38.807Z,97044.59
2023-01-11T20:44:43.418Z,97042.88
2023-01-11T20:47:47.924Z,97036.09
2023-01-11T20:50:54.193Z,97013.03
2023-01-11T20:53:58.837Z,97042.91
2023-01-11T20:57:05.523Z,97036.84
2023-01-11T21:03:14.368Z,97044.63
2023-01-11T21:06:18.877Z,97049.81
2023-01-11T21:09:23.411Z,97045.47
2023-01-11T21:12:27.907Z,97056.47
2023-01-11T21:15:32.457Z,97060.78
2023-01-11T21:18:37.345Z,97052.19
2023-01-11T21:21:42.413Z,97053.13
2023-01-11T21:24:48.323Z,97061.00
2023-01-11T21:27:52.935Z,97074.44
2023-01-11T21:31:02.299Z,97080.50
2023-01-11T21:34:07.467Z,97073.78
2023-01-11T21:37:11.984Z,97071.16
2023-01-11T21:40:16.595Z,97070.44
2023-01-11T21:43:21.086Z,97072.91
2023-01-11T21:46:27.130Z,97058.34
2023-01-11T21:49:32.473Z,97082.31
2023-01-11T21:52:37.069Z,97077.16
2023-01-11T21:55:41.564Z,97090.03
2023-01-11T21:58:46.193Z,97091.72
2023-01-11T22:01:51.066Z,97096.03
2023-01-11T22:04:57.574Z,97099.44
2023-01-11T22:08:02.164Z,97105.31
2023-01-11T22:11:07.368Z,97108.78
2023-01-11T22:14:12.320Z,97110.56
2023-01-11T22:17:16.806Z,97107.16
2023-01-11T22:20:21.339Z,97126.06
2023-01-11T22:23:25.812Z,97131.19
2023-01-11T22:26:33.355Z,97138.88
2023-01-11T22:29:37.850Z,97141.38
2023-01-11T22:32:43.402Z,97113.03
2023-01-11T22:35:55.688Z,97134.59
2023-01-11T22:39:00.292Z,97123.31
2023-01-11T22:42:05.025Z,97133.59
2023-01-11T22:45:10.035Z,97130.03
2023-01-11T22:48:14.596Z,97139.34
2023-01-11T22:51:25.666Z,97142.16
2023-01-11T22:54:30.158Z,97126.59
2023-01-11T22:57:34.697Z,97140.25
2023-01-11T23:00:39.222Z,97130.13
2023-01-11T23:03:47.886Z,97136.84
2023-01-11T23:06:52.530Z,97135.31
2023-01-11T23:09:57.008Z,97143.78
2023-01-11T23:13:20.255Z,97141.94
2023-01-11T23:16:24.656Z,97152.34
2023-01-11T23:19:31.989Z,97148.09
2023-01-11T23:22:36.550Z,97137.78
2023-01-11T23:25:41.017Z,97146.41
2023-01-11T23:28:46.579Z,97147.22
2023-01-11T23:31:51.150Z,97147.25
2023-01-11T23:34:55.670Z,97144.50
2023-01-11T23:38:00.163Z,97144.78
2023-01-11T23:41:28.138Z,97145.53
2023-01-11T23:44:34.388Z,97110.56
2023-01-11T23:47:38.963Z,97143.91
2023-01-11T23:50:43.501Z,97144.63
2023-01-11T23:53:48.129Z,97152.47
2023-01-11T23:56:52.722Z,97157.59
2023-01-11T23:59:57.285Z,97159.34
